Time,TemperatureF,DewpointF,PressureIn,WindDirection,WindDirectionDegrees,WindSpeedMPH,WindSpeedGustMPH,Humidity,HourlyPrecipIn,Conditions,Clouds,dailyrainin,SoftwareType,DateUTC
2013-07-21 00:01:00,87.0,67.0,29.78,ENE,63,12.0,12.0,51,0.00,,,0.00,,2013-07-21 07:01:00,
2013-07-21 00:11:00,87.0,67.0,29.78,ENE,70,11.0,15.0,51,0.00,,,0.00,,2013-07-21 07:11:00,
2013-07-21 00:32:00,87.0,66.0,29.78,NE,56,12.0,12.0,50,0.00,,,0.12,,2013-07-21 07:32:00,
2013-07-21 00:43:00,87.0,67.0,29.78,ESE,111,10.0,11.0,52,0.00,,,0.12,,2013-07-21 07:43:00,
2013-07-21 00:52:00,86.0,67.0,29.78,NE,55,10.0,12.0,53,0.00,,,0.12,,2013-07-21 07:52:00,
2013-07-21 01:01:00,86.0,67.0,29.78,NE,51,14.0,15.0,54,0.00,,,0.12,,2013-07-21 08:01:00,
2013-07-21 01:11:00,86.0,68.0,29.78,ENE,62,12.0,12.0,55,0.00,,,0.12,,2013-07-21 08:11:00,
2013-07-21 01:32:00,86.0,68.0,29.78,ENE,65,9.0,9.0,56,0.00,,,0.12,,2013-07-21 08:32:00,
2013-07-21 01:42:00,86.0,69.0,29.77,NNE,21,10.0,10.0,57,0.00,,,0.12,,2013-07-21 08:42:00,
2013-07-21 01:52:00,86.0,69.0,29.77,NE,38,11.0,12.0,58,0.00,,,0.12,,2013-07-21 08:52:00,
2013-07-21 02:02:00,86.0,69.0,29.78,ENE,58,10.0,10.0,58,0.00,,,0.12,,2013-07-21 09:02:00,
2013-07-21 02:11:00,85.0,69.0,29.78,NE,35,10.0,10.0,59,0.00,,,0.12,,2013-07-21 09:11:00,
2013-07-21 02:22:00,85.0,69.0,29.78,NE,35,10.0,10.0,59,0.00,,,0.12,,2013-07-21 09:22:00,
2013-07-21 02:32:00,85.0,71.0,29.78,ENE,59,11.0,15.0,63,0.00,,,0.12,,2013-07-21 09:32:00,
2013-07-21 02:42:00,84.0,70.0,29.77,NE,46,11.0,11.0,62,0.00,,,0.12,,2013-07-21 09:42:00,
2013-07-21 02:52:00,84.0,70.0,29.76,ENE,60,12.0,14.0,63,0.00,,,0.12,,2013-07-21 09:52:00,
2013-07-21 03:01:00,84.0,70.0,29.76,ENE,65,10.0,11.0,63,0.00,,,0.12,,2013-07-21 10:01:00,
2013-07-21 03:11:00,84.0,70.0,29.77,ENE,77,9.0,11.0,63,0.00,,,0.12,,2013-07-21 10:11:00,
2013-07-21 03:22:00,84.0,70.0,29.77,NE,48,12.0,15.0,62,0.00,,,0.12,,2013-07-21 10:22:00,
2013-07-21 03:43:00,84.0,69.0,29.78,NE,37,10.0,11.0,61,0.00,,,0.12,,2013-07-21 10:43:00,
2013-07-21 03:52:00,83.0,70.0,29.78,NNE,31,10.0,10.0,66,0.00,,,0.12,,2013-07-21 10:52:00,
2013-07-21 04:02:00,82.0,72.0,29.78,NNE,21,11.0,11.0,71,0.00,,,0.12,,2013-07-21 11:02:00,
2013-07-21 04:11:00,82.0,71.0,29.78,NE,56,9.0,14.0,70,0.00,,,0.12,,2013-07-21 11:11:00,
2013-07-21 04:21:00,82.0,72.0,29.78,NE,39,11.0,11.0,71,0.00,,,0.12,,2013-07-21 11:21:00,
2013-07-21 04:32:00,82.0,72.0,29.78,NE,39,11.0,11.0,71,0.00,,,0.12,,2013-07-21 11:32:00,
2013-07-21 04:42:00,80.0,72.0,29.78,NNE,18,5.0,6.0,78,0.00,,,0.12,,2013-07-21 11:42:00,
2013-07-21 04:52:00,78.0,74.0,29.78,NNE,18,9.0,9.0,88,0.00,,,0.12,,2013-07-21 11:52:00,
2013-07-21 05:01:00,78.0,74.0,29.78,ENE,60,9.0,11.0,88,0.00,,,0.12,,2013-07-21 12:01:00,
2013-07-21 05:11:00,78.0,74.0,29.78,ENE,60,9.0,9.0,89,0.11,,,0.12,,2013-07-21 12:11:00,
2013-07-21 05:22:00,79.0,75.0,29.78,NE,41,8.0,8.0,87,0.11,,,0.12,,2013-07-21 12:22:00,
2013-07-21 05:53:00,81.0,72.0,29.80,NNE,23,1.0,1.0,74,0.11,,,0.12,,2013-07-21 12:53:00,
2013-07-21 06:01:00,81.0,73.0,29.81,East,90,4.0,6.0,76,0.11,,,0.12,,2013-07-21 13:01:00,
2013-07-21 06:11:00,80.0,73.0,29.81,ENE,72,8.0,8.0,80,0.11,,,0.12,,2013-07-21 13:11:00,
2013-07-21 06:42:00,78.0,74.0,29.81,ESE,105,6.0,7.0,88,0.00,,,0.12,,2013-07-21 13:42:00,
2013-07-21 06:52:00,78.0,75.0,29.82,ESE,117,6.0,6.0,91,0.00,,,0.12,,2013-07-21 13:52:00,
2013-07-21 07:01:00,77.0,75.0,29.83,ENE,63,8.0,8.0,93,0.00,,,0.12,,2013-07-21 14:01:00,
2013-07-21 07:22:00,76.0,75.0,29.84,ENE,62,11.0,11.0,96,0.07,,,0.12,,2013-07-21 14:22:00,
2013-07-21 07:43:00,76.0,75.0,29.85,ENE,77,6.0,10.0,98,0.07,,,0.12,,2013-07-21 14:43:00,
2013-07-21 08:02:00,76.0,75.0,29.85,ENE,77,8.0,8.0,96,0.07,,,0.12,,2013-07-21 15:02:00,
2013-07-21 08:11:00,76.0,75.0,29.86,NE,41,7.0,7.0,96,0.07,,,0.12,,2013-07-21 15:11:00,
2013-07-21 08:52:00,76.0,74.0,29.86,SE,124,0.0,3.0,95,0.21,,,0.12,,2013-07-21 15:52:00,
2013-07-21 09:01:00,76.0,74.0,29.87,NNE,25,0.0,0.0,95,0.21,,,0.12,,2013-07-21 16:01:00,
2013-07-21 09:11:00,76.0,75.0,29.87,NNE,23,0.0,0.0,96,0.21,,,0.12,,2013-07-21 16:11:00,
2013-07-21 09:22:00,76.0,75.0,29.87,NNE,23,0.0,0.0,96,0.14,,,0.12,,2013-07-21 16:22:00,
2013-07-21 09:32:00,77.0,76.0,29.88,South,188,0.0,2.0,96,0.14,,,0.12,,2013-07-21 16:32:00,
2013-07-21 09:42:00,77.0,76.0,29.88,SW,214,1.0,0.0,96,0.14,,,0.12,,2013-07-21 16:42:00,
2013-07-21 09:52:00,77.0,76.0,29.87,North,359,2.0,4.0,97,0.14,,,0.12,,2013-07-21 16:52:00,
2013-07-21 10:02:00,77.0,76.0,29.87,North,353,4.0,4.0,97,0.14,,,0.12,,2013-07-21 17:02:00,
2013-07-21 10:11:00,77.0,76.0,29.87,ESE,115,0.0,0.0,96,0.14,,,0.12,,2013-07-21 17:11:00,
2013-07-21 10:42:00,78.0,77.0,29.87,North,350,6.0,6.0,96,0.04,,,0.12,,2013-07-21 17:42:00,
2013-07-21 10:53:00,78.0,76.0,29.87,NNW,335,5.0,5.0,95,0.04,,,0.12,,2013-07-21 17:53:00,
2013-07-21 11:01:00,80.0,77.0,29.87,North,356,5.0,5.0,90,0.04,,,0.12,,2013-07-21 18:01:00,
2013-07-21 11:11:00,80.0,77.0,29.87,North,349,4.0,8.0,90,0.04,,,0.12,,2013-07-21 18:11:00,
2013-07-21 11:32:00,82.0,75.0,29.88,North,352,6.0,6.0,79,0.03,,,0.12,,2013-07-21 18:32:00,
2013-07-21 11:43:00,83.0,74.0,29.88,North,359,9.0,9.0,75,0.03,,,0.12,,2013-07-21 18:43:00,
2013-07-21 11:52:00,83.0,74.0,29.88,NNW,329,8.0,8.0,75,0.03,,,0.12,,2013-07-21 18:52:00,
2013-07-21 12:01:00,84.0,74.0,29.88,NNW,343,5.0,6.0,71,0.03,,,0.12,,2013-07-21 19:01:00,
2013-07-21 12:42:00,84.0,74.0,29.88,North,359,8.0,8.0,71,0.00,,,0.12,,2013-07-21 19:42:00,
2013-07-21 12:52:00,85.0,74.0,29.88,NNE,15,5.0,6.0,69,0.00,,,0.12,,2013-07-21 19:52:00,
2013-07-21 13:01:00,86.0,74.0,29.87,NNW,346,7.0,7.0,68,0.00,,,0.12,,2013-07-21 20:01:00,
2013-07-21 13:11:00,86.0,74.0,29.86,NNW,330,6.0,9.0,68,0.00,,,0.12,,2013-07-21 20:11:00,
2013-07-21 13:32:00,87.0,74.0,29.86,NNW,339,10.0,10.0,65,0.00,,,0.12,,2013-07-21 20:32:00,
2013-07-21 13:42:00,88.0,74.0,29.86,NW,322,9.0,9.0,64,0.00,,,0.12,,2013-07-21 20:42:00,
2013-07-21 13:52:00,87.0,74.0,29.86,North,349,7.0,7.0,65,0.00,,,0.12,,2013-07-21 20:52:00,
2013-07-21 14:01:00,86.0,74.0,29.86,NNW,343,5.0,8.0,67,0.00,,,0.12,,2013-07-21 21:01:00,
2013-07-21 14:11:00,86.0,74.0,29.86,NNW,345,8.0,8.0,68,0.00,,,0.12,,2013-07-21 21:11:00,
2013-07-21 14:22:00,86.0,75.0,29.86,NNW,340,5.0,6.0,69,0.00,,,0.12,,2013-07-21 21:22:00,
2013-07-21 14:32:00,85.0,73.0,29.86,North,357,4.0,4.0,68,0.00,,,0.12,,2013-07-21 21:32:00,
2013-07-21 14:43:00,86.0,74.0,29.86,WSW,256,3.0,5.0,68,0.00,,,0.12,,2013-07-21 21:43:00,
2013-07-21 14:52:00,84.0,76.0,29.85,NNW,342,4.0,5.0,78,0.00,,,0.12,,2013-07-21 21:52:00,
2013-07-21 15:01:00,85.0,77.0,29.85,NNW,339,3.0,4.0,78,0.00,,,0.12,,2013-07-21 22:01:00,
2013-07-21 15:11:00,85.0,76.0,29.85,NNW,345,5.0,5.0,74,0.00,,,0.12,,2013-07-21 22:11:00,
2013-07-21 15:21:00,85.0,75.0,29.85,NW,309,4.0,4.0,73,0.00,,,0.12,,2013-07-21 22:21:00,
2013-07-21 15:42:00,85.0,79.0,29.84,NNW,345,4.0,5.0,82,0.00,,,0.12,,2013-07-21 22:42:00,
2013-07-21 15:52:00,86.0,79.0,29.84,NNW,342,4.0,4.0,81,0.00,,,0.12,,2013-07-21 22:52:00,
2013-07-21 16:01:00,87.0,78.0,29.83,WSW,240,4.0,5.0,74,0.00,,,0.12,,2013-07-21 23:01:00,
2013-07-21 16:42:00,92.0,76.0,29.83,WNW,302,2.0,5.0,60,0.08,,,0.12,,2013-07-21 23:42:00,
2013-07-21 16:52:00,93.0,75.0,29.83,East,79,2.0,2.0,57,0.08,,,0.12,,2013-07-21 23:52:00,
2013-07-21 17:01:00,93.0,74.0,29.82,SSE,156,3.0,0.0,55,0.08,,,0.12,,2013-07-22 00:01:00,
2013-07-21 17:11:00,93.0,74.0,29.82,WSW,246,0.0,2.0,55,0.08,,,0.12,,2013-07-22 00:11:00,
2013-07-21 17:22:00,93.0,74.0,29.82,SSW,211,5.0,7.0,55,0.00,,,0.12,,2013-07-22 00:22:00,
2013-07-21 17:32:00,92.0,73.0,29.82,NW,318,5.0,6.0,55,0.00,,,0.12,,2013-07-22 00:32:00,
2013-07-21 17:42:00,91.0,75.0,29.82,SW,231,6.0,11.0,59,0.00,,,0.12,,2013-07-22 00:42:00,
2013-07-21 17:52:00,91.0,75.0,29.82,SW,231,8.0,11.0,59,0.00,,,0.12,,2013-07-22 00:52:00,
2013-07-21 18:01:00,90.0,74.0,29.82,WSW,257,4.0,4.0,60,0.00,,,0.12,,2013-07-22 01:01:00,
2013-07-21 18:11:00,91.0,75.0,29.82,South,170,6.0,6.0,60,0.00,,,0.12,,2013-07-22 01:11:00,
2013-07-21 18:42:00,89.0,74.0,29.82,WSW,250,6.0,6.0,61,0.00,,,0.12,,2013-07-22 01:42:00,
2013-07-21 19:01:00,88.0,74.0,29.82,SW,222,4.0,4.0,64,0.00,,,0.12,,2013-07-22 02:01:00,
2013-07-21 19:11:00,88.0,74.0,29.83,SSW,193,3.0,3.0,64,0.00,,,0.12,,2013-07-22 02:11:00,
2013-07-21 19:32:00,87.0,73.0,29.83,West,269,2.0,2.0,64,0.00,,,0.12,,2013-07-22 02:32:00,
2013-07-21 19:43:00,87.0,73.0,29.83,WSW,243,1.0,3.0,64,0.00,,,0.12,,2013-07-22 02:43:00,
2013-07-21 19:52:00,86.0,73.0,29.83,NW,314,1.0,0.0,65,0.00,,,0.12,,2013-07-22 02:52:00,
2013-07-21 20:01:00,86.0,73.0,29.83,SSW,200,0.0,0.0,66,0.00,,,0.12,,2013-07-22 03:01:00,
2013-07-21 20:11:00,86.0,74.0,29.83,NNW,339,0.0,2.0,67,0.00,,,0.12,,2013-07-22 03:11:00,
2013-07-21 20:22:00,85.0,73.0,29.83,NW,316,0.0,2.0,67,0.00,,,0.12,,2013-07-22 03:22:00,
2013-07-21 20:32:00,85.0,73.0,29.83,NW,305,1.0,0.0,68,0.00,,,0.12,,2013-07-22 03:32:00,
2013-07-21 20:43:00,85.0,74.0,29.84,NW,307,0.0,0.0,69,0.00,,,0.12,,2013-07-22 03:43:00,
2013-07-21 20:52:00,84.0,73.0,29.85,NW,307,0.0,0.0,69,0.00,,,0.12,,2013-07-22 03:52:00,
2013-07-21 21:01:00,84.0,73.0,29.85,NW,307,0.0,0.0,70,0.00,,,0.12,,2013-07-22 04:01:00,
2013-07-21 21:11:00,84.0,74.0,29.85,NW,307,0.0,0.0,71,0.00,,,0.12,,2013-07-22 04:11:00,
2013-07-21 21:33:00,83.0,74.0,29.86,NW,307,0.0,0.0,74,0.00,,,0.12,,2013-07-22 04:33:00,
2013-07-21 21:42:00,83.0,74.0,29.87,NNW,338,0.0,2.0,75,0.00,,,0.12,,2013-07-22 04:42:00,
2013-07-21 22:01:00,83.0,75.0,29.87,NNW,336,0.0,0.0,76,0.00,,,0.12,,2013-07-22 05:01:00,
2013-07-21 22:11:00,83.0,75.0,29.87,NNW,336,0.0,0.0,76,0.00,,,0.12,,2013-07-22 05:11:00,
2013-07-21 22:32:00,83.0,75.0,29.87,NNW,336,0.0,0.0,76,0.00,,,0.12,,2013-07-22 05:32:00,
2013-07-21 22:42:00,83.0,75.0,29.87,NNW,336,0.0,0.0,77,0.00,,,0.12,,2013-07-22 05:42:00,
2013-07-21 22:52:00,82.0,74.0,29.87,NNW,336,0.0,0.0,78,0.00,,,0.12,,2013-07-22 05:52:00,
2013-07-21 23:01:00,82.0,75.0,29.87,NNW,336,0.0,0.0,79,0.00,,,0.12,,2013-07-22 06:01:00,
2013-07-21 23:11:00,82.0,75.0,29.87,NNW,336,0.0,0.0,79,0.00,,,0.12,,2013-07-22 06:11:00,
2013-07-21 23:32:00,83.0,76.0,29.87,NNW,336,0.0,0.0,80,0.00,,,0.12,,2013-07-22 06:32:00,
2013-07-21 23:52:00,83.0,76.0,29.87,North,349,1.0,1.0,79,0.00,,,0.12,,2013-07-22 06:52:00,